sensor_id;sensor_type;location;lat;lon;timestamp;temperature;humidity
65972;SHT31;52726;48.852;9.152;2023-04-15T00:00:40;3.34;85.08
65972;SHT31;52726;48.852;9.152;2023-04-15T00:03:05;3.28;85.83
65972;SHT31;52726;48.852;9.152;2023-04-15T00:05:32;3.21;86.03
65972;SHT31;52726;48.852;9.152;2023-04-15T00:07:57;3.11;86.01
65972;SHT31;52726;48.852;9.152;2023-04-15T00:10:24;3.07;86.10
65972;SHT31;52726;48.852;9.152;2023-04-15T00:12:49;3.04;85.87
65972;SHT31;52726;48.852;9.152;2023-04-15T00:15:15;3.01;86.19
65972;SHT31;52726;48.852;9.152;2023-04-15T00:17:40;2.96;86.57
65972;SHT31;52726;48.852;9.152;2023-04-15T00:20:06;2.90;86.68
65972;SHT31;52726;48.852;9.152;2023-04-15T00:22:31;2.93;86.39
65972;SHT31;52726;48.852;9.152;2023-04-15T00:24:57;2.91;86.21
65972;SHT31;52726;48.852;9.152;2023-04-15T00:27:22;2.86;86.48
65972;SHT31;52726;48.852;9.152;2023-04-15T00:29:47;2.87;86.99
65972;SHT31;52726;48.852;9.152;2023-04-15T00:32:13;2.86;86.91
65972;SHT31;52726;48.852;9.152;2023-04-15T00:34:38;2.79;86.80
65972;SHT31;52726;48.852;9.152;2023-04-15T00:37:03;2.73;86.86
65972;SHT31;52726;48.852;9.152;2023-04-15T00:39:29;2.70;86.80
65972;SHT31;52726;48.852;9.152;2023-04-15T00:41:55;2.66;86.96
65972;SHT31;52726;48.852;9.152;2023-04-15T00:44:21;2.60;87.11
65972;SHT31;52726;48.852;9.152;2023-04-15T00:46:47;2.62;87.28
65972;SHT31;52726;48.852;9.152;2023-04-15T00:49:15;2.59;87.17
65972;SHT31;52726;48.852;9.152;2023-04-15T00:51:40;2.53;86.91
65972;SHT31;52726;48.852;9.152;2023-04-15T00:54:05;2.56;87.02
65972;SHT31;52726;48.852;9.152;2023-04-15T01:00:19;2.42;87.43
65972;SHT31;52726;48.852;9.152;2023-04-15T01:03:05;2.45;87.36
65972;SHT31;52726;48.852;9.152;2023-04-15T01:08:13;2.38;87.82
65972;SHT31;52726;48.852;9.152;2023-04-15T01:10:39;2.38;87.91
65972;SHT31;52726;48.852;9.152;2023-04-15T01:13:04;2.35;87.49
65972;SHT31;52726;48.852;9.152;2023-04-15T01:15:30;2.33;87.28
65972;SHT31;52726;48.852;9.152;2023-04-15T01:17:57;2.35;87.33
65972;SHT31;52726;48.852;9.152;2023-04-15T01:20:23;2.36;87.05
65972;SHT31;52726;48.852;9.152;2023-04-15T01:22:48;2.36;87.20
65972;SHT31;52726;48.852;9.152;2023-04-15T01:25:17;2.35;87.29
65972;SHT31;52726;48.852;9.152;2023-04-15T01:27:43;2.39;87.14
65972;SHT31;52726;48.852;9.152;2023-04-15T01:30:09;2.39;86.75
65972;SHT31;52726;48.852;9.152;2023-04-15T01:32:34;2.42;86.62
65972;SHT31;52726;48.852;9.152;2023-04-15T01:35:00;2.38;86.19
65972;SHT31;52726;48.852;9.152;2023-04-15T01:37:25;2.33;86.69
65972;SHT31;52726;48.852;9.152;2023-04-15T01:39:51;2.25;86.90
65972;SHT31;52726;48.852;9.152;2023-04-15T01:42:16;2.24;87.72
65972;SHT31;52726;48.852;9.152;2023-04-15T01:44:42;2.21;87.80
65972;SHT31;52726;48.852;9.152;2023-04-15T01:47:07;2.14;87.87
65972;SHT31;52726;48.852;9.152;2023-04-15T01:49:33;2.07;88.10
65972;SHT31;52726;48.852;9.152;2023-04-15T01:51:58;2.10;87.76
65972;SHT31;52726;48.852;9.152;2023-04-15T01:54:25;2.07;87.47
65972;SHT31;52726;48.852;9.152;2023-04-15T01:56:51;2.04;87.39
65972;SHT31;52726;48.852;9.152;2023-04-15T01:59:16;2.01;87.78
65972;SHT31;52726;48.852;9.152;2023-04-15T02:01:42;2.07;88.60
65972;SHT31;52726;48.852;9.152;2023-04-15T02:04:09;1.98;88.31
65972;SHT31;52726;48.852;9.152;2023-04-15T02:06:41;1.87;88.55
65972;SHT31;52726;48.852;9.152;2023-04-15T02:09:06;1.78;88.85
65972;SHT31;52726;48.852;9.152;2023-04-15T02:11:32;1.66;88.95
65972;SHT31;52726;48.852;9.152;2023-04-15T02:13:59;1.57;89.11
65972;SHT31;52726;48.852;9.152;2023-04-15T02:16:24;1.55;89.61
65972;SHT31;52726;48.852;9.152;2023-04-15T02:18:50;1.60;89.64
65972;SHT31;52726;48.852;9.152;2023-04-15T02:21:16;1.63;89.66
65972;SHT31;52726;48.852;9.152;2023-04-15T02:23:43;1.66;88.99
65972;SHT31;52726;48.852;9.152;2023-04-15T02:26:08;1.64;89.17
65972;SHT31;52726;48.852;9.152;2023-04-15T02:28:33;1.66;89.83
65972;SHT31;52726;48.852;9.152;2023-04-15T02:30:59;1.64;89.32
65972;SHT31;52726;48.852;9.152;2023-04-15T02:33:25;1.64;89.25
65972;SHT31;52726;48.852;9.152;2023-04-15T02:35:51;1.63;89.11
65972;SHT31;52726;48.852;9.152;2023-04-15T02:38:17;1.67;88.59
65972;SHT31;52726;48.852;9.152;2023-04-15T02:40:42;1.70;89.07
65972;SHT31;52726;48.852;9.152;2023-04-15T02:43:08;1.68;89.05
65972;SHT31;52726;48.852;9.152;2023-04-15T02:45:33;1.68;89.36
65972;SHT31;52726;48.852;9.152;2023-04-15T02:47:59;1.68;89.83
65972;SHT31;52726;48.852;9.152;2023-04-15T02:50:28;1.67;90.23
65972;SHT31;52726;48.852;9.152;2023-04-15T02:52:53;1.68;90.60
65972;SHT31;52726;48.852;9.152;2023-04-15T02:55:18;1.70;90.48
65972;SHT31;52726;48.852;9.152;2023-04-15T02:57:43;1.62;89.93
65972;SHT31;52726;48.852;9.152;2023-04-15T03:00:09;1.68;89.33
65972;SHT31;52726;48.852;9.152;2023-04-15T03:02:37;1.66;89.57
65972;SHT31;52726;48.852;9.152;2023-04-15T03:05:03;1.63;88.99
65972;SHT31;52726;48.852;9.152;2023-04-15T03:07:29;1.55;88.96
65972;SHT31;52726;48.852;9.152;2023-04-15T03:09:54;1.53;88.94
65972;SHT31;52726;48.852;9.152;2023-04-15T03:12:20;1.56;88.90
65972;SHT31;52726;48.852;9.152;2023-04-15T03:14:45;1.60;88.68
65972;SHT31;52726;48.852;9.152;2023-04-15T03:17:11;1.60;88.60
65972;SHT31;52726;48.852;9.152;2023-04-15T03:19:36;1.73;89.84
65972;SHT31;52726;48.852;9.152;2023-04-15T03:22:01;1.88;89.67
65972;SHT31;52726;48.852;9.152;2023-04-15T03:24:27;1.85;89.30
65972;SHT31;52726;48.852;9.152;2023-04-15T03:26:53;1.80;89.52
65972;SHT31;52726;48.852;9.152;2023-04-15T03:29:19;1.60;89.11
65972;SHT31;52726;48.852;9.152;2023-04-15T03:31:45;1.42;89.33
65972;SHT31;52726;48.852;9.152;2023-04-15T03:34:10;1.26;89.93
65972;SHT31;52726;48.852;9.152;2023-04-15T03:36:35;1.28;90.54
65972;SHT31;52726;48.852;9.152;2023-04-15T03:39:01;1.24;90.16
65972;SHT31;52726;48.852;9.152;2023-04-15T03:41:28;1.24;90.15
65972;SHT31;52726;48.852;9.152;2023-04-15T03:43:53;1.24;90.30
65972;SHT31;52726;48.852;9.152;2023-04-15T03:46:19;1.29;90.61
65972;SHT31;52726;48.852;9.152;2023-04-15T03:48:44;1.36;91.22
65972;SHT31;52726;48.852;9.152;2023-04-15T03:51:10;1.32;91.14
65972;SHT31;52726;48.852;9.152;2023-04-15T03:53:35;1.28;90.98
65972;SHT31;52726;48.852;9.152;2023-04-15T03:56:01;1.24;90.69
65972;SHT31;52726;48.852;9.152;2023-04-15T03:58:26;1.25;90.95
65972;SHT31;52726;48.852;9.152;2023-04-15T04:00:51;1.25;91.11
65972;SHT31;52726;48.852;9.152;2023-04-15T04:03:17;1.21;90.83
65972;SHT31;52726;48.852;9.152;2023-04-15T04:05:42;1.19;90.48
65972;SHT31;52726;48.852;9.152;2023-04-15T04:08:08;1.18;90.39
65972;SHT31;52726;48.852;9.152;2023-04-15T04:10:34;1.18;90.48
65972;SHT31;52726;48.852;9.152;2023-04-15T04:12:59;1.18;90.36
65972;SHT31;52726;48.852;9.152;2023-04-15T04:15:25;1.25;90.23
65972;SHT31;52726;48.852;9.152;2023-04-15T04:17:51;1.24;90.27
65972;SHT31;52726;48.852;9.152;2023-04-15T04:20:16;1.28;90.37
65972;SHT31;52726;48.852;9.152;2023-04-15T04:22:41;1.28;90.46
65972;SHT31;52726;48.852;9.152;2023-04-15T04:25:07;1.28;90.23
65972;SHT31;52726;48.852;9.152;2023-04-15T04:27:34;1.28;90.65
65972;SHT31;52726;48.852;9.152;2023-04-15T04:30:00;1.28;91.05
65972;SHT31;52726;48.852;9.152;2023-04-15T04:32:25;1.25;91.31
65972;SHT31;52726;48.852;9.152;2023-04-15T04:34:51;1.24;91.27
65972;SHT31;52726;48.852;9.152;2023-04-15T04:37:16;1.15;91.11
65972;SHT31;52726;48.852;9.152;2023-04-15T04:39:42;1.09;91.09
65972;SHT31;52726;48.852;9.152;2023-04-15T04:42:08;1.05;91.47
65972;SHT31;52726;48.852;9.152;2023-04-15T04:44:33;1.08;91.65
65972;SHT31;52726;48.852;9.152;2023-04-15T04:46:58;1.07;91.45
65972;SHT31;52726;48.852;9.152;2023-04-15T04:49:24;1.07;91.32
65972;SHT31;52726;48.852;9.152;2023-04-15T04:51:49;1.05;91.10
65972;SHT31;52726;48.852;9.152;2023-04-15T04:54:15;1.05;91.03
65972;SHT31;52726;48.852;9.152;2023-04-15T04:56:41;1.09;91.41
65972;SHT31;52726;48.852;9.152;2023-04-15T04:59:06;1.07;90.83
65972;SHT31;52726;48.852;9.152;2023-04-15T05:01:32;1.07;90.91
65972;SHT31;52726;48.852;9.152;2023-04-15T05:03:57;1.11;90.96
65972;SHT31;52726;48.852;9.152;2023-04-15T05:06:23;1.15;90.81
65972;SHT31;52726;48.852;9.152;2023-04-15T05:08:48;1.18;90.67
65972;SHT31;52726;48.852;9.152;2023-04-15T05:11:14;1.21;90.94
65972;SHT31;52726;48.852;9.152;2023-04-15T05:13:39;1.22;91.57
65972;SHT31;52726;48.852;9.152;2023-04-15T05:16:05;1.17;91.28
65972;SHT31;52726;48.852;9.152;2023-04-15T05:18:30;1.07;91.55
65972;SHT31;52726;48.852;9.152;2023-04-15T05:20:56;1.07;92.05
65972;SHT31;52726;48.852;9.152;2023-04-15T05:23:21;1.08;91.65
65972;SHT31;52726;48.852;9.152;2023-04-15T05:25:47;1.09;91.85
65972;SHT31;52726;48.852;9.152;2023-04-15T05:28:12;1.17;91.99
65972;SHT31;52726;48.852;9.152;2023-04-15T05:30:38;1.21;92.20
65972;SHT31;52726;48.852;9.152;2023-04-15T05:33:03;1.29;92.01
65972;SHT31;52726;48.852;9.152;2023-04-15T05:35:29;1.52;92.46
65972;SHT31;52726;48.852;9.152;2023-04-15T05:37:54;1.64;91.52
65972;SHT31;52726;48.852;9.152;2023-04-15T05:40:20;1.70;91.08
65972;SHT31;52726;48.852;9.152;2023-04-15T05:42:45;1.85;90.97
65972;SHT31;52726;48.852;9.152;2023-04-15T05:45:10;2.04;91.19
65972;SHT31;52726;48.852;9.152;2023-04-15T05:47:36;2.24;90.96
65972;SHT31;52726;48.852;9.152;2023-04-15T05:50:02;2.43;90.38
65972;SHT31;52726;48.852;9.152;2023-04-15T05:52:28;2.62;90.16
65972;SHT31;52726;48.852;9.152;2023-04-15T05:54:53;2.80;89.23
65972;SHT31;52726;48.852;9.152;2023-04-15T05:57:18;3.04;88.92
65972;SHT31;52726;48.852;9.152;2023-04-15T05:59:44;3.27;87.80
65972;SHT31;52726;48.852;9.152;2023-04-15T06:02:09;3.55;87.07
65972;SHT31;52726;48.852;9.152;2023-04-15T06:04:35;3.77;86.43
65972;SHT31;52726;48.852;9.152;2023-04-15T06:07:01;4.00;85.61
65972;SHT31;52726;48.852;9.152;2023-04-15T06:09:26;4.25;84.89
65972;SHT31;52726;48.852;9.152;2023-04-15T06:11:53;4.46;83.22
65972;SHT31;52726;48.852;9.152;2023-04-15T06:14:18;4.69;82.99
65972;SHT31;52726;48.852;9.152;2023-04-15T06:16:44;4.81;81.61
65972;SHT31;52726;48.852;9.152;2023-04-15T06:19:09;5.06;81.48
65972;SHT31;52726;48.852;9.152;2023-04-15T06:21:34;5.26;80.28
65972;SHT31;52726;48.852;9.152;2023-04-15T06:24:00;5.55;80.17
65972;SHT31;52726;48.852;9.152;2023-04-15T06:26:26;5.79;79.44
65972;SHT31;52726;48.852;9.152;2023-04-15T06:28:52;5.93;78.35
65972;SHT31;52726;48.852;9.152;2023-04-15T06:31:17;6.24;77.88
65972;SHT31;52726;48.852;9.152;2023-04-15T06:33:43;6.55;76.60
65972;SHT31;52726;48.852;9.152;2023-04-15T06:36:08;6.82;75.18
65972;SHT31;52726;48.852;9.152;2023-04-15T06:38:33;7.00;73.84
65972;SHT31;52726;48.852;9.152;2023-04-15T06:40:59;7.43;73.81
65972;SHT31;52726;48.852;9.152;2023-04-15T06:43:24;8.36;71.62
65972;SHT31;52726;48.852;9.152;2023-04-15T06:45:50;8.60;69.07
65972;SHT31;52726;48.852;9.152;2023-04-15T06:48:15;8.82;69.28
65972;SHT31;52726;48.852;9.152;2023-04-15T06:50:41;9.29;67.66
65972;SHT31;52726;48.852;9.152;2023-04-15T06:53:07;9.95;65.93
65972;SHT31;52726;48.852;9.152;2023-04-15T06:55:32;10.32;65.86
65972;SHT31;52726;48.852;9.152;2023-04-15T06:57:58;10.43;65.53
65972;SHT31;52726;48.852;9.152;2023-04-15T07:00:23;10.90;64.30
65972;SHT31;52726;48.852;9.152;2023-04-15T07:02:50;11.66;62.59
65972;SHT31;52726;48.852;9.152;2023-04-15T07:05:15;11.99;61.58
65972;SHT31;52726;48.852;9.152;2023-04-15T07:07:41;12.48;60.49
65972;SHT31;52726;48.852;9.152;2023-04-15T07:10:07;12.76;59.20
65972;SHT31;52726;48.852;9.152;2023-04-15T07:12:32;12.86;58.75
65972;SHT31;52726;48.852;9.152;2023-04-15T07:14:59;13.21;58.33
65972;SHT31;52726;48.852;9.152;2023-04-15T07:17:24;13.18;58.45
65972;SHT31;52726;48.852;9.152;2023-04-15T07:19:50;12.55;58.64
65972;SHT31;52726;48.852;9.152;2023-04-15T07:22:15;12.28;56.97
65972;SHT31;52726;48.852;9.152;2023-04-15T07:24:40;11.71;60.65
65972;SHT31;52726;48.852;9.152;2023-04-15T07:27:06;10.81;62.80
65972;SHT31;52726;48.852;9.152;2023-04-15T07:32:54;10.13;66.07
65972;SHT31;52726;48.852;9.152;2023-04-15T07:35:20;10.26;65.73
65972;SHT31;52726;48.852;9.152;2023-04-15T07:37:47;10.29;65.67
65972;SHT31;52726;48.852;9.152;2023-04-15T07:40:12;10.20;66.65
65972;SHT31;52726;48.852;9.152;2023-04-15T07:42:39;10.51;66.15
65972;SHT31;52726;48.852;9.152;2023-04-15T07:45:05;11.16;66.30
65972;SHT31;52726;48.852;9.152;2023-04-15T07:47:31;11.93;64.50
65972;SHT31;52726;48.852;9.152;2023-04-15T07:49:56;12.83;63.54
65972;SHT31;52726;48.852;9.152;2023-04-15T07:52:21;13.49;59.40
65972;SHT31;52726;48.852;9.152;2023-04-15T07:54:47;13.90;58.56
65972;SHT31;52726;48.852;9.152;2023-04-15T07:57:12;14.07;56.48
65972;SHT31;52726;48.852;9.152;2023-04-15T07:59:37;13.94;55.86
65972;SHT31;52726;48.852;9.152;2023-04-15T08:02:03;13.56;52.83
65972;SHT31;52726;48.852;9.152;2023-04-15T08:04:28;12.93;54.70
65972;SHT31;52726;48.852;9.152;2023-04-15T08:06:54;13.25;53.63
65972;SHT31;52726;48.852;9.152;2023-04-15T08:09:19;13.42;53.57
65972;SHT31;52726;48.852;9.152;2023-04-15T08:11:47;14.32;53.98
65972;SHT31;52726;48.852;9.152;2023-04-15T08:14:13;15.03;50.89
65972;SHT31;52726;48.852;9.152;2023-04-15T08:16:38;14.32;52.65
65972;SHT31;52726;48.852;9.152;2023-04-15T08:19:03;13.73;53.86
65972;SHT31;52726;48.852;9.152;2023-04-15T08:21:29;13.08;53.75
65972;SHT31;52726;48.852;9.152;2023-04-15T08:23:55;12.90;55.92
65972;SHT31;52726;48.852;9.152;2023-04-15T08:26:20;12.63;56.46
65972;SHT31;52726;48.852;9.152;2023-04-15T08:28:46;12.21;57.91
65972;SHT31;52726;48.852;9.152;2023-04-15T08:31:13;12.20;56.70
65972;SHT31;52726;48.852;9.152;2023-04-15T08:33:39;11.90;58.91
65972;SHT31;52726;48.852;9.152;2023-04-15T08:36:04;12.45;58.33
65972;SHT31;52726;48.852;9.152;2023-04-15T08:38:30;12.69;56.99
65972;SHT31;52726;48.852;9.152;2023-04-15T08:40:57;13.10;55.20
65972;SHT31;52726;48.852;9.152;2023-04-15T08:43:27;13.27;57.08
65972;SHT31;52726;48.852;9.152;2023-04-15T08:45:54;13.54;55.67
65972;SHT31;52726;48.852;9.152;2023-04-15T08:48:20;13.48;55.47
65972;SHT31;52726;48.852;9.152;2023-04-15T08:50:47;13.48;57.18
65972;SHT31;52726;48.852;9.152;2023-04-15T08:53:13;13.73;57.40
65972;SHT31;52726;48.852;9.152;2023-04-15T08:55:43;14.09;57.18
65972;SHT31;52726;48.852;9.152;2023-04-15T08:58:12;14.34;55.79
65972;SHT31;52726;48.852;9.152;2023-04-15T09:00:38;14.21;56.09
65972;SHT31;52726;48.852;9.152;2023-04-15T09:03:04;14.57;54.20
65972;SHT31;52726;48.852;9.152;2023-04-15T09:05:37;14.67;55.82
65972;SHT31;52726;48.852;9.152;2023-04-15T09:08:03;14.72;55.17
65972;SHT31;52726;48.852;9.152;2023-04-15T09:10:29;14.92;54.13
65972;SHT31;52726;48.852;9.152;2023-04-15T09:12:56;15.06;51.41
65972;SHT31;52726;48.852;9.152;2023-04-15T09:15:23;14.67;55.66
65972;SHT31;52726;48.852;9.152;2023-04-15T09:17:49;14.41;53.78
65972;SHT31;52726;48.852;9.152;2023-04-15T09:20:15;14.88;54.86
65972;SHT31;52726;48.852;9.152;2023-04-15T09:22:46;14.52;52.49
65972;SHT31;52726;48.852;9.152;2023-04-15T09:27:54;14.14;56.87
65972;SHT31;52726;48.852;9.152;2023-04-15T09:30:20;13.80;57.31
65972;SHT31;52726;48.852;9.152;2023-04-15T09:32:53;13.91;54.71
65972;SHT31;52726;48.852;9.152;2023-04-15T09:35:19;14.18;54.10
65972;SHT31;52726;48.852;9.152;2023-04-15T09:37:45;13.99;52.71
65972;SHT31;52726;48.852;9.152;2023-04-15T09:40:11;13.75;53.87
65972;SHT31;52726;48.852;9.152;2023-04-15T09:42:53;13.48;54.87
65972;SHT31;52726;48.852;9.152;2023-04-15T09:45:19;13.59;55.78
65972;SHT31;52726;48.852;9.152;2023-04-15T09:47:44;13.55;54.90
65972;SHT31;52726;48.852;9.152;2023-04-15T09:50:10;13.73;56.34
65972;SHT31;52726;48.852;9.152;2023-04-15T09:52:41;13.70;55.48
65972;SHT31;52726;48.852;9.152;2023-04-15T09:55:07;13.62;53.50
65972;SHT31;52726;48.852;9.152;2023-04-15T09:57:34;13.46;56.66
65972;SHT31;52726;48.852;9.152;2023-04-15T10:00:00;13.63;58.62
65972;SHT31;52726;48.852;9.152;2023-04-15T10:02:26;13.38;57.27
65972;SHT31;52726;48.852;9.152;2023-04-15T10:04:51;13.65;58.65
65972;SHT31;52726;48.852;9.152;2023-04-15T10:07:19;13.77;57.78
65972;SHT31;52726;48.852;9.152;2023-04-15T10:09:47;13.91;59.53
65972;SHT31;52726;48.852;9.152;2023-04-15T10:12:15;13.62;57.01
65972;SHT31;52726;48.852;9.152;2023-04-15T10:14:41;13.52;58.94
65972;SHT31;52726;48.852;9.152;2023-04-15T10:17:10;13.58;55.85
65972;SHT31;52726;48.852;9.152;2023-04-15T10:19:37;13.96;55.84
65972;SHT31;52726;48.852;9.152;2023-04-15T10:22:03;14.55;54.98
65972;SHT31;52726;48.852;9.152;2023-04-15T10:24:32;14.58;55.14
65972;SHT31;52726;48.852;9.152;2023-04-15T10:26:59;14.25;51.70
65972;SHT31;52726;48.852;9.152;2023-04-15T10:29:24;14.25;52.98
65972;SHT31;52726;48.852;9.152;2023-04-15T10:31:55;14.58;54.53
65972;SHT31;52726;48.852;9.152;2023-04-15T10:34:23;14.61;55.85
65972;SHT31;52726;48.852;9.152;2023-04-15T10:36:48;14.45;55.77
65972;SHT31;52726;48.852;9.152;2023-04-15T10:44:38;13.75;51.27
65972;SHT31;52726;48.852;9.152;2023-04-15T10:47:11;13.62;53.41
65972;SHT31;52726;48.852;9.152;2023-04-15T10:49:48;14.00;56.04
65972;SHT31;52726;48.852;9.152;2023-04-15T10:52:16;13.86;55.30
65972;SHT31;52726;48.852;9.152;2023-04-15T10:54:42;14.10;53.05
65972;SHT31;52726;48.852;9.152;2023-04-15T10:57:13;14.10;56.06
65972;SHT31;52726;48.852;9.152;2023-04-15T11:02:47;14.14;55.85
65972;SHT31;52726;48.852;9.152;2023-04-15T11:05:16;14.40;55.27
65972;SHT31;52726;48.852;9.152;2023-04-15T11:12:43;14.18;49.63
65972;SHT31;52726;48.852;9.152;2023-04-15T11:15:37;14.31;50.68
65972;SHT31;52726;48.852;9.152;2023-04-15T11:18:11;14.57;52.42
65972;SHT31;52726;48.852;9.152;2023-04-15T11:20:38;14.67;51.59
65972;SHT31;52726;48.852;9.152;2023-04-15T11:23:04;14.71;52.62
65972;SHT31;52726;48.852;9.152;2023-04-15T11:25:31;14.28;51.46
65972;SHT31;52726;48.852;9.152;2023-04-15T11:27:58;13.94;50.11
65972;SHT31;52726;48.852;9.152;2023-04-15T11:30:26;13.56;53.07
65972;SHT31;52726;48.852;9.152;2023-04-15T11:32:54;13.22;58.04
65972;SHT31;52726;48.852;9.152;2023-04-15T11:35:20;13.00;56.55
65972;SHT31;52726;48.852;9.152;2023-04-15T11:37:47;13.15;59.64
65972;SHT31;52726;48.852;9.152;2023-04-15T11:40:14;13.34;60.07
65972;SHT31;52726;48.852;9.152;2023-04-15T11:42:42;13.56;59.90
65972;SHT31;52726;48.852;9.152;2023-04-15T11:45:11;13.67;57.41
65972;SHT31;52726;48.852;9.152;2023-04-15T11:47:37;13.96;58.29
65972;SHT31;52726;48.852;9.152;2023-04-15T11:50:19;14.30;55.92
65972;SHT31;52726;48.852;9.152;2023-04-15T11:55:17;14.49;55.06
65972;SHT31;52726;48.852;9.152;2023-04-15T11:57:43;14.21;51.10
65972;SHT31;52726;48.852;9.152;2023-04-15T12:00:09;14.11;52.51
65972;SHT31;52726;48.852;9.152;2023-04-15T12:02:35;14.16;54.19
65972;SHT31;52726;48.852;9.152;2023-04-15T12:05:05;13.94;55.15
65972;SHT31;52726;48.852;9.152;2023-04-15T12:07:30;13.63;55.88
65972;SHT31;52726;48.852;9.152;2023-04-15T12:09:57;13.55;59.59
65972;SHT31;52726;48.852;9.152;2023-04-15T12:12:26;13.41;56.44
65972;SHT31;52726;48.852;9.152;2023-04-15T12:14:53;13.27;58.81
65972;SHT31;52726;48.852;9.152;2023-04-15T12:17:22;11.84;60.68
65972;SHT31;52726;48.852;9.152;2023-04-15T12:19:47;11.11;66.02
65972;SHT31;52726;48.852;9.152;2023-04-15T12:22:15;10.49;73.87
65972;SHT31;52726;48.852;9.152;2023-04-15T12:24:43;9.88;75.75
65972;SHT31;52726;48.852;9.152;2023-04-15T12:27:12;9.29;81.64
65972;SHT31;52726;48.852;9.152;2023-04-15T12:29:41;8.86;80.03
65972;SHT31;52726;48.852;9.152;2023-04-15T12:32:12;8.78;80.31
65972;SHT31;52726;48.852;9.152;2023-04-15T12:34:39;8.72;77.39
65972;SHT31;52726;48.852;9.152;2023-04-15T12:37:07;8.86;80.20
65972;SHT31;52726;48.852;9.152;2023-04-15T12:39:38;8.92;79.22
65972;SHT31;52726;48.852;9.152;2023-04-15T12:42:05;9.08;77.83
65972;SHT31;52726;48.852;9.152;2023-04-15T12:44:30;9.30;77.72
65972;SHT31;52726;48.852;9.152;2023-04-15T12:46:57;9.65;77.80
65972;SHT31;52726;48.852;9.152;2023-04-15T12:49:24;10.06;77.05
65972;SHT31;52726;48.852;9.152;2023-04-15T12:51:54;10.23;72.00
65972;SHT31;52726;48.852;9.152;2023-04-15T12:54:20;10.29;71.01
65972;SHT31;52726;48.852;9.152;2023-04-15T12:56:47;10.34;71.83
65972;SHT31;52726;48.852;9.152;2023-04-15T12:59:14;10.59;70.82
65972;SHT31;52726;48.852;9.152;2023-04-15T13:01:40;10.61;67.63
65972;SHT31;52726;48.852;9.152;2023-04-15T13:04:06;10.87;69.24
65972;SHT31;52726;48.852;9.152;2023-04-15T13:06:31;11.12;69.48
65972;SHT31;52726;48.852;9.152;2023-04-15T13:09:00;11.09;62.77
65972;SHT31;52726;48.852;9.152;2023-04-15T13:11:26;11.02;66.13
65972;SHT31;52726;48.852;9.152;2023-04-15T13:13:53;11.05;68.72
65972;SHT31;52726;48.852;9.152;2023-04-15T13:16:20;11.08;67.50
65972;SHT31;52726;48.852;9.152;2023-04-15T13:18:47;11.16;65.95
65972;SHT31;52726;48.852;9.152;2023-04-15T13:21:12;11.23;68.24
65972;SHT31;52726;48.852;9.152;2023-04-15T13:23:37;11.19;62.88
65972;SHT31;52726;48.852;9.152;2023-04-15T13:26:03;11.37;66.74
65972;SHT31;52726;48.852;9.152;2023-04-15T13:28:28;11.49;62.08
65972;SHT31;52726;48.852;9.152;2023-04-15T13:30:53;11.67;64.84
65972;SHT31;52726;48.852;9.152;2023-04-15T13:33:19;11.84;61.05
65972;SHT31;52726;48.852;9.152;2023-04-15T13:35:44;11.93;60.02
65972;SHT31;52726;48.852;9.152;2023-04-15T13:38:10;11.87;54.98
65972;SHT31;52726;48.852;9.152;2023-04-15T13:40:35;11.91;56.31
65972;SHT31;52726;48.852;9.152;2023-04-15T13:43:01;11.91;56.67
65972;SHT31;52726;48.852;9.152;2023-04-15T13:45:27;11.85;59.74
65972;SHT31;52726;48.852;9.152;2023-04-15T13:47:54;11.74;59.59
65972;SHT31;52726;48.852;9.152;2023-04-15T13:50:20;11.59;62.98
65972;SHT31;52726;48.852;9.152;2023-04-15T13:52:45;11.42;59.43
65972;SHT31;52726;48.852;9.152;2023-04-15T13:55:11;11.32;58.49
65972;SHT31;52726;48.852;9.152;2023-04-15T13:57:36;11.29;58.23
65972;SHT31;52726;48.852;9.152;2023-04-15T14:00:02;11.22;60.64
65972;SHT31;52726;48.852;9.152;2023-04-15T14:02:29;11.09;56.56
65972;SHT31;52726;48.852;9.152;2023-04-15T14:04:54;11.11;58.57
65972;SHT31;52726;48.852;9.152;2023-04-15T14:07:20;11.15;61.36
65972;SHT31;52726;48.852;9.152;2023-04-15T14:09:45;11.09;60.27
65972;SHT31;52726;48.852;9.152;2023-04-15T14:12:12;11.11;60.40
65972;SHT31;52726;48.852;9.152;2023-04-15T14:14:37;11.08;57.51
65972;SHT31;52726;48.852;9.152;2023-04-15T14:17:24;11.01;58.80
65972;SHT31;52726;48.852;9.152;2023-04-15T14:19:50;10.92;57.66
65972;SHT31;52726;48.852;9.152;2023-04-15T14:22:15;10.88;58.87
65972;SHT31;52726;48.852;9.152;2023-04-15T14:30:10;10.68;56.58
65972;SHT31;52726;48.852;9.152;2023-04-15T14:32:36;10.68;58.80
65972;SHT31;52726;48.852;9.152;2023-04-15T14:35:01;10.71;57.33
65972;SHT31;52726;48.852;9.152;2023-04-15T14:37:28;10.68;56.40
65972;SHT31;52726;48.852;9.152;2023-04-15T14:39:53;10.64;58.34
65972;SHT31;52726;48.852;9.152;2023-04-15T14:42:19;10.54;58.22
65972;SHT31;52726;48.852;9.152;2023-04-15T14:44:44;10.40;59.08
65972;SHT31;52726;48.852;9.152;2023-04-15T14:47:10;10.34;60.23
65972;SHT31;52726;48.852;9.152;2023-04-15T14:49:35;10.25;58.55
65972;SHT31;52726;48.852;9.152;2023-04-15T14:52:03;10.30;58.95
65972;SHT31;52726;48.852;9.152;2023-04-15T14:54:29;10.26;60.56
65972;SHT31;52726;48.852;9.152;2023-04-15T14:56:54;10.20;62.38
65972;SHT31;52726;48.852;9.152;2023-04-15T14:59:20;10.16;61.55
65972;SHT31;52726;48.852;9.152;2023-04-15T15:01:46;10.09;61.01
65972;SHT31;52726;48.852;9.152;2023-04-15T15:04:11;10.02;62.48
65972;SHT31;52726;48.852;9.152;2023-04-15T15:06:37;9.96;60.77
65972;SHT31;52726;48.852;9.152;2023-04-15T15:09:03;9.94;62.31
65972;SHT31;52726;48.852;9.152;2023-04-15T15:11:28;9.91;63.03
65972;SHT31;52726;48.852;9.152;2023-04-15T15:13:54;9.86;61.44
65972;SHT31;52726;48.852;9.152;2023-04-15T15:16:19;9.84;63.06
65972;SHT31;52726;48.852;9.152;2023-04-15T15:18:45;9.84;63.63
65972;SHT31;52726;48.852;9.152;2023-04-15T15:21:11;9.82;63.94
65972;SHT31;52726;48.852;9.152;2023-04-15T15:23:36;9.84;62.55
65972;SHT31;52726;48.852;9.152;2023-04-15T15:26:02;9.86;61.93
65972;SHT31;52726;48.852;9.152;2023-04-15T15:28:27;9.91;62.37
65972;SHT31;52726;48.852;9.152;2023-04-15T15:30:53;9.92;64.24
65972;SHT31;52726;48.852;9.152;2023-04-15T15:33:18;9.98;61.00
65972;SHT31;52726;48.852;9.152;2023-04-15T15:35:45;10.01;62.15
65972;SHT31;52726;48.852;9.152;2023-04-15T15:38:11;10.03;61.59
65972;SHT31;52726;48.852;9.152;2023-04-15T15:40:36;10.06;62.43
65972;SHT31;52726;48.852;9.152;2023-04-15T15:43:03;10.02;62.60
65972;SHT31;52726;48.852;9.152;2023-04-15T15:45:29;10.05;63.76
65972;SHT31;52726;48.852;9.152;2023-04-15T15:47:54;10.05;62.59
65972;SHT31;52726;48.852;9.152;2023-04-15T15:50:21;10.03;65.17
65972;SHT31;52726;48.852;9.152;2023-04-15T15:52:47;10.01;64.51
65972;SHT31;52726;48.852;9.152;2023-04-15T15:55:12;9.96;66.90
65972;SHT31;52726;48.852;9.152;2023-04-15T15:57:37;9.91;67.22
65972;SHT31;52726;48.852;9.152;2023-04-15T16:00:03;9.84;69.65
65972;SHT31;52726;48.852;9.152;2023-04-15T16:02:29;9.68;73.16
65972;SHT31;52726;48.852;9.152;2023-04-15T16:04:56;9.50;74.00